createdAt,value
2018-04-29T00:29:15.033Z,7
2018-04-29T00:39:11.273Z,12
2018-04-29T01:09:11.210Z,12
2018-04-29T01:29:35.440Z,12
2018-04-29T01:39:11.218Z,10
2018-04-29T01:59:11.685Z,12
2018-04-29T02:09:11.288Z,12
2018-04-29T02:19:48.721Z,12
2018-04-29T02:29:11.338Z,11
2018-04-29T02:49:11.347Z,10
2018-04-29T02:59:11.320Z,10
2018-04-29T03:19:11.318Z,11
2018-04-29T03:49:11.392Z,12
2018-04-29T03:59:11.334Z,14
2018-04-29T04:19:11.387Z,11
2018-04-29T04:29:29.044Z,16
2018-04-29T04:39:11.400Z,13
2018-04-29T04:49:11.447Z,12
2018-04-29T04:59:11.398Z,11
2018-04-29T05:09:11.385Z,13
2018-04-29T05:19:54.230Z,14
2018-04-29T05:29:18.939Z,13
2018-04-29T05:39:11.477Z,15
2018-04-29T05:49:11.480Z,14
2018-04-29T06:19:35.910Z,14
2018-04-29T06:29:11.476Z,12
2018-04-29T06:39:11.526Z,13
2018-04-29T07:19:11.567Z,11
2018-04-29T07:29:11.602Z,11
2018-04-29T07:39:11.598Z,8
2018-04-29T07:59:11.617Z,10
2018-04-29T08:09:11.703Z,10
2018-04-29T08:19:11.605Z,10
2018-04-29T08:29:31.661Z,12
2018-04-29T08:39:11.792Z,11
2018-04-29T08:49:16.961Z,10
2018-04-29T08:59:11.588Z,11
2018-04-29T09:29:11.696Z,12
2018-04-29T09:59:11.711Z,11
2018-04-29T10:19:11.693Z,9
2018-04-29T10:29:11.664Z,10
2018-04-29T10:39:11.648Z,9
2018-04-29T10:49:42.367Z,9
2018-04-29T10:59:11.670Z,8
2018-04-29T11:09:11.877Z,6
2018-04-29T11:39:30.310Z,8
2018-04-29T11:49:11.705Z,9
2018-04-29T11:59:12.312Z,7
2018-04-29T12:09:11.848Z,5
2018-04-29T12:19:12.763Z,6
2018-04-29T12:29:12.117Z,4
2018-04-29T12:39:12.512Z,7
2018-04-29T12:49:24.127Z,4
2018-04-29T12:59:11.987Z,4
2018-04-29T13:09:12.092Z,6
2018-04-29T13:19:12.137Z,6
2018-04-29T13:29:12.418Z,6
2018-04-29T13:39:11.757Z,4
2018-04-29T13:49:12.527Z,4
2018-04-29T13:59:12.014Z,5
2018-04-29T14:09:11.766Z,4
2018-04-29T14:19:11.861Z,6
2018-04-29T14:29:11.836Z,5
2018-04-29T14:39:11.788Z,3
2018-04-29T14:49:11.767Z,5
2018-04-29T14:59:11.810Z,4
2018-04-29T15:09:13.064Z,3
2018-04-29T15:19:12.080Z,3
2018-04-29T15:29:11.780Z,3
2018-04-29T15:39:11.786Z,4
2018-04-29T15:49:11.839Z,4
2018-04-29T15:59:11.747Z,4
2018-04-29T16:09:12.439Z,4
2018-04-29T16:19:11.821Z,4
2018-04-29T16:29:12.059Z,4
2018-04-29T16:39:11.890Z,5
2018-04-29T16:49:11.813Z,4
2018-04-29T16:59:11.787Z,4
2018-04-29T17:09:11.866Z,4
2018-04-29T17:19:11.877Z,4
2018-04-29T17:29:14.483Z,4
2018-04-29T17:39:12.922Z,4
2018-04-29T17:49:11.975Z,3
2018-04-29T17:59:12.181Z,5
2018-04-29T18:09:11.779Z,4
2018-04-29T18:19:11.821Z,6
2018-04-29T18:29:11.875Z,4
2018-04-29T18:39:11.947Z,6
2018-04-29T18:49:12.030Z,6
2018-04-29T18:59:11.770Z,7
2018-04-29T19:09:11.856Z,7
2018-04-29T19:19:12.150Z,4
2018-04-29T19:29:11.887Z,6
2018-04-29T19:39:12.430Z,6
2018-04-29T19:49:12.536Z,6
2018-04-29T19:59:11.853Z,6
2018-04-29T20:09:12.111Z,6
2018-04-29T20:19:12.045Z,6
2018-04-29T20:29:11.948Z,8
2018-04-29T20:39:11.842Z,6
2018-04-29T20:49:11.890Z,6
2018-04-29T20:59:11.893Z,9
2018-04-29T21:09:12.714Z,6
2018-04-29T21:19:11.828Z,9
2018-04-29T21:29:11.843Z,7
2018-04-29T21:39:11.765Z,8
2018-04-29T21:49:12.147Z,8
2018-04-29T21:59:12.067Z,7
2018-04-29T22:09:11.963Z,8
2018-04-29T22:19:26.197Z,7
2018-04-29T22:29:12.022Z,8
2018-04-29T22:39:12.190Z,9
2018-04-29T22:49:11.926Z,8
2018-04-29T22:59:11.974Z,12
2018-04-29T23:09:11.736Z,13
2018-04-29T23:19:11.898Z,12
2018-04-29T23:29:11.876Z,13
2018-04-29T23:39:11.910Z,17
2018-04-29T23:49:11.776Z,19
2018-04-29T23:59:12.160Z,22
